Detalii statie INDEPENDENTA [00001985]

Toti senzorii

Date Temperatura solului [C]Precipitatii [mm]Voltaj baterie [mV]Leaf Wetness [Min]HC Air temperature [C]HC Relative humidity [%]Punctul de roua [C]
medieminmaxsumaultimatimpmedieminmaxmediemediemin
2020-01-21 22:00:00 0 6346 -0.42 -0.63 -0.12 0 0 0
2020-01-21 23:00:00 0 6336 -0.39 -0.54 -0.3 0 0 0
2020-01-22 00:00:00 0 6328 -0.84 -1.11 -0.55 0 0 0
2020-01-22 01:00:00 0 6328 -1.26 -1.48 -1.02 0 0 0
2020-01-22 02:00:00 0 6318 -1.51 -1.64 -1.4 0 0 0
2020-01-22 03:00:00 0 6318 -1.86 -2.22 -1.67 0 0 0
2020-01-22 04:00:00 0 6308 -2.26 -2.38 -2.15 0 0 0
2020-01-22 05:00:00 0 6308 -2.34 -2.43 -2.24 0 0 0
2020-01-22 06:00:00 0 6308 -2.33 -2.62 -2.23 0 0 0
2020-01-22 07:00:00 0 6298 -2.34 -2.58 -2.16 0 0 0
2020-01-22 08:00:00 0 6298 -2.05 -2.22 -1.91 0 0 0
2020-01-22 09:00:00 0 6346 -1.54 -1.81 -1.12 0 0 0
2020-01-22 10:00:00 0 6386 -0.25 -1.03 0.49 0 0 0
2020-01-22 11:00:00 0 6406 1.56 0.62 2.37 0 0 0
2020-01-22 12:00:00 0 6416 3.26 2.3 4.1 0 0 0
2020-01-22 13:00:00 0 6424 4.77 4.13 5.59 0 0 0
2020-01-22 14:00:00 0 6454 5.64 5.26 5.87 0 0 0
2020-01-22 15:00:00 0 6494 6.04 5.68 6.3 0 0 0
2020-01-22 16:00:00 0 6464 6.22 5.97 6.39 0 0 0
2020-01-22 17:00:00 0 6424 5.61 5.15 5.95 0 0 0
2020-01-22 18:00:00 0 6396 4.24 3.2 4.95 0 0 0
2020-01-22 19:00:00 0 6376 3.2 2.26 3.66 0 0 0
2020-01-22 20:00:00 0 6366 2.94 2.26 3.68 0 0 0
2020-01-22 21:00:00 0 6356 -0.18 -2.41 2.02 0 0 0
2020-01-22 22:00:00 0 6336 -1.65 -2.41 -0.55 0 0 0
2020-01-22 23:00:00 0 6336 -0.87 -1.74 0.26 0 0 0
2020-01-23 00:00:00 0 6328 -0.64 -1.19 0.07 0 0 0
2020-01-23 01:00:00 0 6318 -0.88 -1.15 -0.62 0 0 0
2020-01-23 02:00:00 0 6318 -1.17 -1.43 -1.05 0 0 0
2020-01-23 03:00:00 0 6318 -2.06 -3.15 -1.19 0 0 0
2020-01-23 04:00:00 0 6308 -2.97 -3.75 -2.2 0 0 0
2020-01-23 05:00:00 0 6308 -3.47 -3.79 -3.19 0 0 0
2020-01-23 06:00:00 0 6298 -3.09 -3.75 -2.64 0 0 0
2020-01-23 07:00:00 0 6298 -3.73 -4.25 -3.32 0 0 0
2020-01-23 08:00:00 0 6298 -3.56 -3.79 -3 0 0 0
2020-01-23 09:00:00 0 6336 -2.08 -2.77 -0.71 0 0 0
2020-01-23 10:00:00 0 6376 0.33 -0.53 1.19 0 0 0
2020-01-23 11:00:00 0 6434 2.54 0.84 3.79 0 0 0
2020-01-23 12:00:00 0 6454 4.89 3.94 5.87 0 0 0
2020-01-23 13:00:00 0 6434 7.11 6 7.67 0 0 0
2020-01-23 14:00:00 0 6454 7.76 7.49 7.96 0 0 0
2020-01-23 15:00:00 0 6494 7.63 7.3 7.93 0 0 0
2020-01-23 16:00:00 0 6494 7.17 6.8 7.38 0 0 0
2020-01-23 17:00:00 0 6424 5.21 3.22 6.65 0 0 0
2020-01-23 18:00:00 0 6406 1.32 0.22 2.69 0 0 0
2020-01-23 19:00:00 0 6376 -0.39 -1.36 0.23 0 0 0
2020-01-23 20:00:00 0 6366 -1.69 -1.93 -1.41 0 0 0